createdAt,value
2017-04-11T00:00:02.728Z,847.86
2017-04-11T00:00:06.922Z,847.83
2017-04-11T00:00:11.279Z,847.81
2017-04-11T00:00:15.702Z,847.8
2017-04-11T00:00:19.891Z,847.82
2017-04-11T00:00:24.314Z,847.78
2017-04-11T00:00:28.738Z,847.78
2017-04-11T00:00:33.159Z,847.77
2017-04-11T00:00:37.467Z,847.76
2017-04-11T00:00:41.778Z,847.75
2017-04-11T00:00:46.133Z,847.76
2017-04-11T00:00:50.556Z,847.74
2017-04-11T00:00:54.979Z,847.74
2017-04-11T00:00:59.288Z,847.72
2017-04-11T00:01:03.719Z,847.7
2017-04-11T00:01:08.146Z,847.64
2017-04-11T00:01:12.585Z,847.65
2017-04-11T00:01:17.018Z,847.66
2017-04-11T00:01:21.494Z,847.63
2017-04-11T00:01:25.806Z,847.62
2017-04-11T00:01:30.234Z,847.63
2017-04-11T00:01:34.663Z,847.59
2017-04-11T00:01:39.095Z,847.6
2017-04-11T00:01:43.545Z,847.59
2017-04-11T00:01:47.851Z,847.58
2017-04-11T00:01:52.276Z,847.58
2017-04-11T00:01:56.697Z,847.55
2017-04-11T00:02:01.120Z,847.54
2017-04-11T00:02:05.556Z,847.52
2017-04-11T00:02:09.994Z,847.53
2017-04-11T00:02:14.421Z,847.47
2017-04-11T00:02:18.728Z,847.43
2017-04-11T00:02:23.156Z,847.48
2017-04-11T00:02:27.472Z,847.43
2017-04-11T00:02:31.900Z,847.41
2017-04-11T00:02:36.109Z,847.44
2017-04-11T00:02:40.543Z,847.4
2017-04-11T00:02:44.861Z,847.42
2017-04-11T00:02:49.300Z,847.37
2017-04-11T00:02:53.773Z,847.33
2017-04-11T00:02:58.200Z,847.31
2017-04-11T00:03:02.614Z,847.3
2017-04-11T00:03:07.051Z,847.34
2017-04-11T00:03:11.488Z,847.3
2017-04-11T00:03:15.925Z,847.32
2017-04-11T00:03:20.238Z,847.3
2017-04-11T00:03:24.673Z,847.27
2017-04-11T00:03:28.872Z,847.31
2017-04-11T00:03:33.202Z,847.29
2017-04-11T00:03:37.392Z,847.23
2017-04-11T00:03:41.847Z,847.26
2017-04-11T00:03:46.271Z,847.25
2017-04-11T00:03:50.696Z,847.21
2017-04-11T00:03:55.132Z,847.2
2017-04-11T00:03:59.568Z,847.17
2017-04-11T00:04:03.994Z,847.17
2017-04-11T00:04:08.299Z,847.18
2017-04-11T00:04:12.726Z,847.18
2017-04-11T00:04:17.167Z,847.16
2017-04-11T00:04:21.470Z,847.17
2017-04-11T00:04:25.897Z,847.11
2017-04-11T00:04:30.330Z,847.15
2017-04-11T00:04:34.647Z,847.13
2017-04-11T00:04:39.070Z,847.1
2017-04-11T00:04:43.261Z,847.13
2017-04-11T00:04:47.571Z,847.11
2017-04-11T00:04:52.006Z,847.11
2017-04-11T00:04:56.429Z,847.12
2017-04-11T00:05:00.858Z,847.11
2017-04-11T00:05:05.170Z,847.07
2017-04-11T00:05:09.485Z,847.07
2017-04-11T00:05:13.798Z,847.03
2017-04-11T00:05:18.239Z,847
2017-04-11T00:05:22.676Z,847.01
2017-04-11T00:05:26.986Z,847.04
2017-04-11T00:05:31.421Z,847.03
2017-04-11T00:05:35.613Z,847.01
2017-04-11T00:05:40.044Z,846.97
2017-04-11T00:05:44.016Z,846.97
2017-04-11T00:05:48.322Z,846.95
2017-04-11T00:05:52.629Z,846.96
2017-04-11T00:05:56.941Z,846.97
2017-04-11T00:06:01.416Z,846.98
2017-04-11T00:06:05.963Z,846.92
2017-04-11T00:06:10.272Z,846.94
2017-04-11T00:06:14.700Z,846.92
2017-04-11T00:06:19.007Z,846.92
2017-04-11T00:06:23.324Z,846.91
2017-04-11T00:06:27.758Z,846.91
2017-04-11T00:06:32.071Z,846.91
2017-04-11T00:06:36.500Z,846.92
2017-04-11T00:06:40.694Z,846.88
2017-04-11T00:06:45.008Z,846.87
2017-04-11T00:06:49.323Z,846.88
2017-04-11T00:06:53.750Z,846.86
2017-04-11T00:06:58.063Z,846.87
2017-04-11T00:07:02.533Z,846.84
2017-04-11T00:07:06.726Z,846.85
2017-04-11T00:07:11.173Z,846.81
2017-04-11T00:07:15.489Z,846.8
2017-04-11T00:07:19.802Z,846.83
2017-04-11T00:07:24.114Z,846.81
2017-04-11T00:07:28.538Z,846.8
2017-04-11T00:07:32.868Z,846.81
2017-04-11T00:07:37.183Z,846.8
2017-04-11T00:07:41.623Z,846.79
2017-04-11T00:07:46.072Z,846.77
2017-04-11T00:07:50.515Z,846.75
2017-04-11T00:07:54.592Z,846.76
2017-04-11T00:07:58.911Z,846.72
2017-04-11T00:08:03.229Z,846.69
2017-04-11T00:08:07.557Z,846.69
2017-04-11T00:08:11.762Z,846.71
2017-04-11T00:08:16.193Z,846.69
2017-04-11T00:08:20.630Z,846.72
2017-04-11T00:08:24.962Z,846.68
2017-04-11T00:08:29.275Z,846.69
2017-04-11T00:08:33.706Z,846.68
2017-04-11T00:08:38.025Z,846.65
2017-04-11T00:08:42.478Z,846.65
2017-04-11T00:08:46.678Z,846.66
2017-04-11T00:08:51.111Z,846.64
2017-04-11T00:08:55.551Z,846.6
2017-04-11T00:08:59.763Z,846.63
2017-04-11T00:09:04.041Z,846.64
2017-04-11T00:09:08.465Z,846.61
2017-04-11T00:09:12.889Z,846.6
2017-04-11T00:09:17.330Z,846.59
2017-04-11T00:09:21.646Z,846.63
2017-04-11T00:09:25.957Z,846.58
2017-04-11T00:09:30.388Z,846.55
2017-04-11T00:09:34.589Z,846.54
2017-04-11T00:09:38.663Z,846.51
2017-04-11T00:09:43.088Z,846.55
2017-04-11T00:09:47.512Z,846.53
2017-04-11T00:09:51.746Z,846.53
2017-04-11T00:09:56.055Z,846.52
2017-04-11T00:10:00.243Z,846.5
2017-04-11T00:10:04.552Z,846.49
2017-04-11T00:10:09.036Z,846.46
2017-04-11T00:10:13.234Z,846.43
2017-04-11T00:10:17.659Z,846.39
2017-04-11T00:10:22.090Z,846.43
2017-04-11T00:10:26.288Z,846.39
2017-04-11T00:10:30.362Z,846.38
2017-04-11T00:10:34.326Z,846.36
2017-04-11T00:10:38.758Z,846.37
2017-04-11T00:10:43.068Z,846.39
2017-04-11T00:10:47.262Z,846.31
2017-04-11T00:10:51.688Z,846.37
2017-04-11T00:10:55.767Z,846.34
2017-04-11T00:11:00.203Z,846.3
2017-04-11T00:11:04.731Z,846.27
2017-04-11T00:11:09.049Z,846.26
2017-04-11T00:11:13.481Z,846.26
2017-04-11T00:11:17.917Z,846.26
2017-04-11T00:11:22.231Z,846.23
2017-04-11T00:11:26.534Z,846.26
2017-04-11T00:11:30.957Z,846.27
2017-04-11T00:11:35.151Z,846.25
2017-04-11T00:11:39.456Z,846.24
2017-04-11T00:11:43.878Z,846.23
2017-04-11T00:11:48.303Z,846.13
2017-04-11T00:11:52.782Z,846.2
2017-04-11T00:11:57.212Z,846.17
2017-04-11T00:12:01.638Z,846.15
2017-04-11T00:12:05.946Z,846.13
2017-04-11T00:12:10.389Z,846.1
2017-04-11T00:12:14.809Z,846.09
2017-04-11T00:12:19.121Z,846.1
2017-04-11T00:12:23.432Z,846.06
2017-04-11T00:12:27.853Z,846.05
2017-04-11T00:12:32.277Z,846.01
2017-04-11T00:12:36.705Z,846
2017-04-11T00:12:41.011Z,846
2017-04-11T00:12:45.447Z,846.03
2017-04-11T00:12:49.868Z,845.99
2017-04-11T00:12:54.295Z,846
2017-04-11T00:12:58.720Z,846.01
2017-04-11T00:13:03.345Z,845.93
2017-04-11T00:13:07.530Z,845.94
2017-04-11T00:13:11.954Z,845.98
2017-04-11T00:13:16.385Z,845.95
2017-04-11T00:13:20.703Z,845.96
2017-04-11T00:13:25.142Z,845.92
2017-04-11T00:13:29.448Z,845.92
2017-04-11T00:13:33.870Z,845.88
2017-04-11T00:13:38.298Z,845.87
2017-04-11T00:13:42.485Z,845.89
2017-04-11T00:13:46.673Z,845.89
2017-04-11T00:13:51.103Z,845.86
2017-04-11T00:13:55.469Z,845.88
2017-04-11T00:13:59.774Z,845.88
2017-04-11T00:14:04.450Z,845.86
2017-04-11T00:14:08.765Z,845.81
2017-04-11T00:14:13.192Z,845.82
2017-04-11T00:14:17.611Z,845.81
2017-04-11T00:14:22.034Z,845.79
2017-04-11T00:14:26.465Z,845.8
2017-04-11T00:14:30.890Z,845.79
2017-04-11T00:14:35.312Z,845.78
2017-04-11T00:14:39.622Z,845.78
2017-04-11T00:14:44.046Z,845.74
2017-04-11T00:14:48.466Z,845.73
2017-04-11T00:14:52.889Z,845.7
2017-04-11T00:14:57.313Z,845.71
2017-04-11T00:15:01.744Z,845.73
2017-04-11T00:15:06.112Z,845.7
2017-04-11T00:15:10.544Z,845.69
2017-04-11T00:15:14.979Z,845.75
2017-04-11T00:15:19.439Z,845.67
2017-04-11T00:15:23.858Z,845.68
2017-04-11T00:15:28.287Z,845.66
2017-04-11T00:15:32.717Z,845.69
2017-04-11T00:15:37.030Z,845.68
2017-04-11T00:15:41.333Z,845.67
2017-04-11T00:15:45.770Z,845.69
2017-04-11T00:15:50.233Z,845.67
2017-04-11T00:15:54.658Z,845.67
2017-04-11T00:15:59.087Z,845.65
2017-04-11T00:16:03.767Z,845.64
2017-04-11T00:16:08.078Z,845.64
2017-04-11T00:16:12.386Z,845.64
2017-04-11T00:16:16.690Z,845.63
2017-04-11T00:16:20.995Z,845.65
2017-04-11T00:16:25.306Z,845.64
2017-04-11T00:16:29.733Z,845.63
2017-04-11T00:16:33.923Z,845.61
2017-04-11T00:16:38.355Z,845.61
2017-04-11T00:16:42.659Z,845.6
2017-04-11T00:16:46.965Z,845.59
2017-04-11T00:16:51.387Z,845.61
2017-04-11T00:16:55.855Z,845.61
2017-04-11T00:17:00.282Z,845.58
2017-04-11T00:17:04.792Z,845.55
2017-04-11T00:17:09.105Z,845.56
2017-04-11T00:17:13.574Z,845.56
2017-04-11T00:17:17.881Z,845.57
2017-04-11T00:17:22.299Z,845.55
2017-04-11T00:17:26.609Z,845.52
2017-04-11T00:17:31.037Z,845.53
2017-04-11T00:17:35.358Z,845.52
2017-04-11T00:17:39.673Z,845.54
2017-04-11T00:17:44.117Z,845.52
2017-04-11T00:17:48.539Z,845.5
2017-04-11T00:17:52.961Z,845.47
2017-04-11T00:17:57.381Z,845.43
2017-04-11T00:18:01.959Z,845.42
2017-04-11T00:18:06.393Z,845.47
2017-04-11T00:18:10.578Z,845.47
2017-04-11T00:18:15.005Z,845.43
2017-04-11T00:18:19.377Z,845.43
2017-04-11T00:18:23.811Z,845.45
2017-04-11T00:18:28.242Z,845.41
2017-04-11T00:18:32.665Z,845.43
2017-04-11T00:18:36.973Z,845.42
2017-04-11T00:18:41.323Z,845.41
2017-04-11T00:18:45.751Z,845.4
2017-04-11T00:18:50.181Z,845.37
2017-04-11T00:18:54.619Z,845.4
2017-04-11T00:18:59.048Z,845.39
2017-04-11T00:19:03.622Z,845.41
2017-04-11T00:19:08.047Z,845.37
2017-04-11T00:19:12.506Z,845.36
2017-04-11T00:19:16.699Z,845.36
2017-04-11T00:19:21.002Z,845.37
2017-04-11T00:19:25.437Z,845.36
2017-04-11T00:19:29.893Z,845.35
2017-04-11T00:19:34.205Z,845.31
2017-04-11T00:19:38.509Z,845.36
2017-04-11T00:19:42.819Z,845.32
2017-04-11T00:19:47.247Z,845.34
2017-04-11T00:19:51.672Z,845.34
2017-04-11T00:19:56.099Z,845.31
2017-04-11T00:20:00.297Z,845.3
2017-04-11T00:20:04.729Z,845.31
2017-04-11T00:20:08.922Z,845.33
2017-04-11T00:20:13.347Z,845.25
2017-04-11T00:20:17.776Z,845.29
2017-04-11T00:20:22.209Z,845.3
2017-04-11T00:20:26.518Z,845.29
2017-04-11T00:20:30.939Z,845.28
2017-04-11T00:20:35.373Z,845.32
2017-04-11T00:20:39.685Z,845.27
2017-04-11T00:20:44.114Z,845.26
2017-04-11T00:20:48.421Z,845.27
2017-04-11T00:20:52.852Z,845.26
2017-04-11T00:20:57.162Z,845.24
2017-04-11T00:21:01.783Z,845.26
2017-04-11T00:21:06.209Z,845.27
2017-04-11T00:21:10.648Z,845.27
2017-04-11T00:21:15.079Z,845.25
2017-04-11T00:21:19.389Z,845.25
2017-04-11T00:21:23.824Z,845.23
2017-04-11T00:21:28.168Z,845.26
2017-04-11T00:21:32.471Z,845.21
2017-04-11T00:21:36.899Z,845.22
2017-04-11T00:21:41.211Z,845.23
2017-04-11T00:21:45.401Z,845.2
2017-04-11T00:21:49.712Z,845.18
2017-04-11T00:21:54.142Z,845.23
2017-04-11T00:21:58.569Z,845.21
2017-04-11T00:22:03.180Z,845.2
2017-04-11T00:22:07.489Z,845.16
2017-04-11T00:22:11.799Z,845.16
2017-04-11T00:22:16.232Z,845.19
2017-04-11T00:22:20.652Z,845.14
2017-04-11T00:22:25.077Z,845.13
2017-04-11T00:22:29.509Z,845.15
2017-04-11T00:22:33.706Z,845.14
2017-04-11T00:22:38.136Z,845.14
2017-04-11T00:22:42.558Z,845.11
2017-04-11T00:22:46.744Z,845.16
2017-04-11T00:22:51.171Z,845.14
2017-04-11T00:22:55.590Z,845.17
2017-04-11T00:23:00.009Z,845.12
2017-04-11T00:23:04.792Z,845.14
2017-04-11T00:23:09.100Z,845.13
2017-04-11T00:23:13.530Z,845.15
2017-04-11T00:23:17.846Z,845.14
2017-04-11T00:23:22.269Z,845.14
2017-04-11T00:23:26.694Z,845.16
2017-04-11T00:23:31.119Z,845.11
2017-04-11T00:23:35.316Z,845.08
2017-04-11T00:23:39.619Z,845.09
2017-04-11T00:23:44.044Z,845.1
2017-04-11T00:23:48.467Z,845.08
2017-04-11T00:23:52.895Z,845.1
2017-04-11T00:23:57.220Z,845.11
2017-04-11T00:24:01.666Z,845.07
2017-04-11T00:24:05.905Z,845.07
2017-04-11T00:24:10.332Z,845.08
2017-04-11T00:24:14.767Z,845.05
2017-04-11T00:24:19.190Z,845.07
2017-04-11T00:24:23.615Z,845.09
2017-04-11T00:24:27.917Z,845
2017-04-11T00:24:32.339Z,845.05
2017-04-11T00:24:36.762Z,845.01
2017-04-11T00:24:41.186Z,845.03
2017-04-11T00:24:45.608Z,845.04
2017-04-11T00:24:50.038Z,844.98
2017-04-11T00:24:54.459Z,845.03
2017-04-11T00:24:58.878Z,845.01
2017-04-11T00:25:03.307Z,845.01
2017-04-11T00:25:07.622Z,844.98
2017-04-11T00:25:12.046Z,844.99
2017-04-11T00:25:16.470Z,844.96
2017-04-11T00:25:20.895Z,844.97
2017-04-11T00:25:25.122Z,844.97
2017-04-11T00:25:29.541Z,845.01
2017-04-11T00:25:33.966Z,844.94
2017-04-11T00:25:38.388Z,844.93
2017-04-11T00:25:42.701Z,844.92
2017-04-11T00:25:47.124Z,844.95
2017-04-11T00:25:51.441Z,844.98
2017-04-11T00:25:55.871Z,844.95
2017-04-11T00:26:00.183Z,844.97
2017-04-11T00:26:04.815Z,844.97
2017-04-11T00:26:09.007Z,844.98
2017-04-11T00:26:13.433Z,844.95
2017-04-11T00:26:17.863Z,844.97
2017-04-11T00:26:22.170Z,844.92
2017-04-11T00:26:26.589Z,844.96
2017-04-11T00:26:31.016Z,844.96
2017-04-11T00:26:35.445Z,844.9
2017-04-11T00:26:39.752Z,844.96
2017-04-11T00:26:44.180Z,844.95
2017-04-11T00:26:48.610Z,844.96
2017-04-11T00:26:53.042Z,844.96
2017-04-11T00:26:57.465Z,844.94
2017-04-11T00:27:01.989Z,844.94
2017-04-11T00:27:06.184Z,844.91
2017-04-11T00:27:10.634Z,844.91
2017-04-11T00:27:15.063Z,844.92
2017-04-11T00:27:19.492Z,844.88
2017-04-11T00:27:23.920Z,844.85
2017-04-11T00:27:28.345Z,844.89
2017-04-11T00:27:32.767Z,844.91
2017-04-11T00:27:37.077Z,844.9
2017-04-11T00:27:41.501Z,844.93
2017-04-11T00:27:45.922Z,844.94
2017-04-11T00:27:50.223Z,844.9
2017-04-11T00:27:54.525Z,844.88
2017-04-11T00:27:58.951Z,844.93
2017-04-11T00:28:03.472Z,844.92
2017-04-11T00:28:07.893Z,844.91
2017-04-11T00:28:12.200Z,844.92
2017-04-11T00:28:16.519Z,844.92
2017-04-11T00:28:20.939Z,844.9
2017-04-11T00:28:25.361Z,844.91
2017-04-11T00:28:29.801Z,844.88
2017-04-11T00:28:34.222Z,844.88
2017-04-11T00:28:38.525Z,844.9
2017-04-11T00:28:42.944Z,844.87
2017-04-11T00:28:47.410Z,844.88
2017-04-11T00:28:51.837Z,844.87
2017-04-11T00:28:56.032Z,844.89
2017-04-11T00:29:00.337Z,844.89
2017-04-11T00:29:04.748Z,844.87
2017-04-11T00:29:09.181Z,844.88
2017-04-11T00:29:13.602Z,844.88
2017-04-11T00:29:17.918Z,844.87
2017-04-11T00:29:22.352Z,844.87
2017-04-11T00:29:26.777Z,844.86
2017-04-11T00:29:31.204Z,844.86
2017-04-11T00:29:35.632Z,844.85
2017-04-11T00:29:40.053Z,844.86
2017-04-11T00:29:44.483Z,844.87
2017-04-11T00:29:48.675Z,844.87
2017-04-11T00:29:53.107Z,844.85
2017-04-11T00:29:57.411Z,844.82
2017-04-11T00:30:02.140Z,844.82
2017-04-11T00:30:06.449Z,844.85
2017-04-11T00:30:10.756Z,844.87
2017-04-11T00:30:15.070Z,844.87
2017-04-11T00:30:19.497Z,844.87
2017-04-11T00:30:23.928Z,844.85
2017-04-11T00:30:28.350Z,844.86
2017-04-11T00:30:32.771Z,844.84
2017-04-11T00:30:36.848Z,844.86
2017-04-11T00:30:41.156Z,844.84
2017-04-11T00:30:45.578Z,844.84
2017-04-11T00:30:49.884Z,844.82
2017-04-11T00:30:54.202Z,844.85
2017-04-11T00:30:58.514Z,844.83
2017-04-11T00:31:03.190Z,844.82
2017-04-11T00:31:07.630Z,844.82
2017-04-11T00:31:11.946Z,844.79
2017-04-11T00:31:16.418Z,844.79
2017-04-11T00:31:20.846Z,844.84
2017-04-11T00:31:25.270Z,844.85
2017-04-11T00:31:29.586Z,844.79
2017-04-11T00:31:34.065Z,844.76
2017-04-11T00:31:38.484Z,844.81
2017-04-11T00:31:42.787Z,844.79
2017-04-11T00:31:47.115Z,844.84
2017-04-11T00:31:51.568Z,844.81
2017-04-11T00:31:55.876Z,844.83
2017-04-11T00:32:00.184Z,844.87
2017-04-11T00:32:04.634Z,844.81
2017-04-11T00:32:08.937Z,844.8
2017-04-11T00:32:13.254Z,844.78
2017-04-11T00:32:17.688Z,844.8
2017-04-11T00:32:22.152Z,844.8
2017-04-11T00:32:26.590Z,844.78
2017-04-11T00:32:31.012Z,844.77
2017-04-11T00:32:35.436Z,844.82
2017-04-11T00:32:39.873Z,844.81
2017-04-11T00:32:44.182Z,844.83
2017-04-11T00:32:48.489Z,844.82
2017-04-11T00:32:52.929Z,844.82
2017-04-11T00:32:57.239Z,844.8
2017-04-11T00:33:01.662Z,844.8
2017-04-11T00:33:06.090Z,844.8
2017-04-11T00:33:10.410Z,844.82
2017-04-11T00:33:14.726Z,844.81
2017-04-11T00:33:19.180Z,844.83
2017-04-11T00:33:23.609Z,844.83
2017-04-11T00:33:28.034Z,844.83
2017-04-11T00:33:32.465Z,844.77
2017-04-11T00:33:36.887Z,844.84
2017-04-11T00:33:41.199Z,844.82
2017-04-11T00:33:45.630Z,844.85
2017-04-11T00:33:50.065Z,844.78
2017-04-11T00:33:54.495Z,844.82
2017-04-11T00:33:58.927Z,844.8
2017-04-11T00:34:03.238Z,844.82
2017-04-11T00:34:07.555Z,844.77
2017-04-11T00:34:11.983Z,844.84
2017-04-11T00:34:16.294Z,844.84
2017-04-11T00:34:20.718Z,844.8
2017-04-11T00:34:25.148Z,844.82
2017-04-11T00:34:29.570Z,844.83
2017-04-11T00:34:33.997Z,844.86
2017-04-11T00:34:38.304Z,844.8
2017-04-11T00:34:42.613Z,844.83
2017-04-11T00:34:47.036Z,844.85
2017-04-11T00:34:51.464Z,844.84
2017-04-11T00:34:55.887Z,844.81
2017-04-11T00:35:00.338Z,844.83
2017-04-11T00:35:04.637Z,844.83
2017-04-11T00:35:08.950Z,844.84
2017-04-11T00:35:13.374Z,844.84
2017-04-11T00:35:17.817Z,844.82
2017-04-11T00:35:22.125Z,844.82
2017-04-11T00:35:26.552Z,844.8
2017-04-11T00:35:30.986Z,844.82
2017-04-11T00:35:35.412Z,844.8
2017-04-11T00:35:39.718Z,844.83
2017-04-11T00:35:44.141Z,844.81
2017-04-11T00:35:48.581Z,844.82
2017-04-11T00:35:52.887Z,844.81
2017-04-11T00:35:57.195Z,844.82
2017-04-11T00:36:01.390Z,844.82
2017-04-11T00:36:05.855Z,844.78
2017-04-11T00:36:10.163Z,844.77
2017-04-11T00:36:14.585Z,844.74
2017-04-11T00:36:19.005Z,844.82
2017-04-11T00:36:23.438Z,844.81
2017-04-11T00:36:27.864Z,844.81
2017-04-11T00:36:32.294Z,844.81
2017-04-11T00:36:36.601Z,844.8
2017-04-11T00:36:40.917Z,844.79
2017-04-11T00:36:45.347Z,844.78
2017-04-11T00:36:49.773Z,844.85
2017-04-11T00:36:54.202Z,844.83
2017-04-11T00:36:58.637Z,844.83
2017-04-11T00:37:03.066Z,844.84
2017-04-11T00:37:07.378Z,844.8
2017-04-11T00:37:11.691Z,844.82
2017-04-11T00:37:16.118Z,844.82
2017-04-11T00:37:20.544Z,844.82
2017-04-11T00:37:24.965Z,844.81
2017-04-11T00:37:29.400Z,844.82
2017-04-11T00:37:33.826Z,844.83
2017-04-11T00:37:38.132Z,844.85
2017-04-11T00:37:42.444Z,844.81
2017-04-11T00:37:46.774Z,844.82
2017-04-11T00:37:51.086Z,844.8
2017-04-11T00:37:55.521Z,844.81
2017-04-11T00:37:59.943Z,844.83
2017-04-11T00:38:04.367Z,844.81
2017-04-11T00:38:08.798Z,844.83
2017-04-11T00:38:13.277Z,844.85
2017-04-11T00:38:17.705Z,844.79
2017-04-11T00:38:22.136Z,844.81
2017-04-11T00:38:26.564Z,844.82
2017-04-11T00:38:30.997Z,844.83
2017-04-11T00:38:35.308Z,844.77
2017-04-11T00:38:39.611Z,844.81
2017-04-11T00:38:43.805Z,844.76
2017-04-11T00:38:48.162Z,844.8
2017-04-11T00:38:52.586Z,844.78
2017-04-11T00:38:57.009Z,844.8
2017-04-11T00:39:01.429Z,844.79
2017-04-11T00:39:05.859Z,844.79
2017-04-11T00:39:10.290Z,844.79
2017-04-11T00:39:14.722Z,844.8
2017-04-11T00:39:18.914Z,844.77
2017-04-11T00:39:23.400Z,844.8
2017-04-11T00:39:27.823Z,844.77
2017-04-11T00:39:32.251Z,844.78
2017-04-11T00:39:36.675Z,844.79
2017-04-11T00:39:40.986Z,844.75
2017-04-11T00:39:45.412Z,844.79
2017-04-11T00:39:49.843Z,844.75
2017-04-11T00:39:54.272Z,844.79
2017-04-11T00:39:58.703Z,844.78
2017-04-11T00:40:03.188Z,844.77
2017-04-11T00:40:07.624Z,844.78
2017-04-11T00:40:12.052Z,844.74
2017-04-11T00:40:16.366Z,844.78
2017-04-11T00:40:20.799Z,844.76
2017-04-11T00:40:25.105Z,844.74
2017-04-11T00:40:29.572Z,844.75
2017-04-11T00:40:33.994Z,844.76
2017-04-11T00:40:38.419Z,844.75
2017-04-11T00:40:42.623Z,844.75
2017-04-11T00:40:46.941Z,844.75
2017-04-11T00:40:51.365Z,844.75
2017-04-11T00:40:55.797Z,844.76
2017-04-11T00:41:00.113Z,844.78
2017-04-11T00:41:04.545Z,844.75
2017-04-11T00:41:08.974Z,844.7
2017-04-11T00:41:13.402Z,844.74
2017-04-11T00:41:17.832Z,844.74
2017-04-11T00:41:22.146Z,844.73
2017-04-11T00:41:26.572Z,844.72
2017-04-11T00:41:30.995Z,844.74
2017-04-11T00:41:35.422Z,844.71
2017-04-11T00:41:39.771Z,844.69
2017-04-11T00:41:44.196Z,844.69
2017-04-11T00:41:48.627Z,844.68
2017-04-11T00:41:53.056Z,844.7
2017-04-11T00:41:57.835Z,844.72
2017-04-11T00:42:02.512Z,844.66
2017-04-11T00:42:06.955Z,844.67
2017-04-11T00:42:11.390Z,844.71
2017-04-11T00:42:15.578Z,844.69
2017-04-11T00:42:20.001Z,844.7
2017-04-11T00:42:24.434Z,844.71
2017-04-11T00:42:28.920Z,844.68
2017-04-11T00:42:33.345Z,844.63
2017-04-11T00:42:37.775Z,844.65
2017-04-11T00:42:42.212Z,844.65
2017-04-11T00:42:46.651Z,844.63
2017-04-11T00:42:51.081Z,844.66
2017-04-11T00:42:55.515Z,844.67
2017-04-11T00:42:59.945Z,844.67
2017-04-11T00:43:04.186Z,844.69
2017-04-11T00:43:08.613Z,844.69
2017-04-11T00:43:13.047Z,844.64
2017-04-11T00:43:17.244Z,844.64
2017-04-11T00:43:21.676Z,844.65
2017-04-11T00:43:26.109Z,844.67
2017-04-11T00:43:30.545Z,844.67
2017-04-11T00:43:34.880Z,844.68
2017-04-11T00:43:39.311Z,844.64
2017-04-11T00:43:43.624Z,844.65
2017-04-11T00:43:48.057Z,844.65
2017-04-11T00:43:52.255Z,844.66
2017-04-11T00:43:56.684Z,844.62
2017-04-11T00:44:01.001Z,844.65
2017-04-11T00:44:05.623Z,844.62
2017-04-11T00:44:09.712Z,844.61
2017-04-11T00:44:14.140Z,844.65
2017-04-11T00:44:18.599Z,844.61
2017-04-11T00:44:23.029Z,844.61
2017-04-11T00:44:27.468Z,844.62
2017-04-11T00:44:31.897Z,844.64
2017-04-11T00:44:36.221Z,844.63
2017-04-11T00:44:40.647Z,844.64
2017-04-11T00:44:45.077Z,844.56
2017-04-11T00:44:49.379Z,844.6
2017-04-11T00:44:53.804Z,844.6
2017-04-11T00:44:58.240Z,844.59
2017-04-11T00:45:02.734Z,844.59
2017-04-11T00:45:07.174Z,844.57
2017-04-11T00:45:11.486Z,844.57
2017-04-11T00:45:15.917Z,844.56
2017-04-11T00:45:20.348Z,844.57
2017-04-11T00:45:24.768Z,844.56
2017-04-11T00:45:28.964Z,844.57
2017-04-11T00:45:33.279Z,844.55
2017-04-11T00:45:37.710Z,844.52
2017-04-11T00:45:41.905Z,844.56
2017-04-11T00:45:46.331Z,844.53
2017-04-11T00:45:50.565Z,844.49
2017-04-11T00:45:54.989Z,844.49
2017-04-11T00:45:59.414Z,844.52
2017-04-11T00:46:03.842Z,844.49
2017-04-11T00:46:08.161Z,844.48
2017-04-11T00:46:12.587Z,844.41
2017-04-11T00:46:17.015Z,844.45
2017-04-11T00:46:21.444Z,844.47
2017-04-11T00:46:25.647Z,844.49
2017-04-11T00:46:30.090Z,844.43
2017-04-11T00:46:34.511Z,844.47
2017-04-11T00:46:38.699Z,844.42
2017-04-11T00:46:43.129Z,844.42
2017-04-11T00:46:47.556Z,844.42
2017-04-11T00:46:51.982Z,844.39
2017-04-11T00:46:56.664Z,844.41
2017-04-11T00:47:00.974Z,844.41
2017-04-11T00:47:05.547Z,844.38
2017-04-11T00:47:09.991Z,844.37
2017-04-11T00:47:14.422Z,844.38
2017-04-11T00:47:18.747Z,844.38
2017-04-11T00:47:22.941Z,844.39
2017-04-11T00:47:27.368Z,844.39
2017-04-11T00:47:31.719Z,844.39
2017-04-11T00:47:36.151Z,844.34
2017-04-11T00:47:40.459Z,844.37
2017-04-11T00:47:44.896Z,844.37
2017-04-11T00:47:49.265Z,844.33
2017-04-11T00:47:53.469Z,844.36
2017-04-11T00:47:57.901Z,844.34
2017-04-11T00:48:02.338Z,844.32
2017-04-11T00:48:06.773Z,844.33
2017-04-11T00:48:11.089Z,844.31
2017-04-11T00:48:15.519Z,844.28
2017-04-11T00:48:19.840Z,844.28
2017-04-11T00:48:24.320Z,844.28
2017-04-11T00:48:28.628Z,844.28
2017-04-11T00:48:33.064Z,844.29
2017-04-11T00:48:37.381Z,844.21
2017-04-11T00:48:41.811Z,844.28
2017-04-11T00:48:46.241Z,844.26
2017-04-11T00:48:50.676Z,844.25
2017-04-11T00:48:55.113Z,844.24
2017-04-11T00:48:59.546Z,844.23
2017-04-11T00:49:03.978Z,844.2
2017-04-11T00:49:08.298Z,844.22
2017-04-11T00:49:12.557Z,844.22
2017-04-11T00:49:16.997Z,844.21
2017-04-11T00:49:21.326Z,844.19
2017-04-11T00:49:25.770Z,844.2
2017-04-11T00:49:30.202Z,844.18
2017-04-11T00:49:34.630Z,844.17
2017-04-11T00:49:39.065Z,844.2
2017-04-11T00:49:43.258Z,844.18
2017-04-11T00:49:47.572Z,844.15
2017-04-11T00:49:51.765Z,844.17
2017-04-11T00:49:56.079Z,844.15
2017-04-11T00:50:00.507Z,844.17
2017-04-11T00:50:04.819Z,844.13
2017-04-11T00:50:09.023Z,844.14
2017-04-11T00:50:13.451Z,844.14
2017-04-11T00:50:17.880Z,844.1
2017-04-11T00:50:22.302Z,844.05
2017-04-11T00:50:26.725Z,844.07
2017-04-11T00:50:31.154Z,844.11
2017-04-11T00:50:35.507Z,844.09
2017-04-11T00:50:39.697Z,844.09
2017-04-11T00:50:44.120Z,844.06
2017-04-11T00:50:48.553Z,843.99
2017-04-11T00:50:52.979Z,844.04
2017-04-11T00:50:57.411Z,844.02
2017-04-11T00:51:01.603Z,844.03
2017-04-11T00:51:06.082Z,844.01
2017-04-11T00:51:10.387Z,844.01
2017-04-11T00:51:14.819Z,844.01
2017-04-11T00:51:19.248Z,843.97
2017-04-11T00:51:23.706Z,844
2017-04-11T00:51:28.133Z,843.98
2017-04-11T00:51:32.558Z,843.94
2017-04-11T00:51:36.980Z,843.97
2017-04-11T00:51:41.403Z,843.94
2017-04-11T00:51:45.706Z,843.95
2017-04-11T00:51:50.036Z,843.95
2017-04-11T00:51:54.468Z,843.93
2017-04-11T00:51:58.667Z,843.93
2017-04-11T00:52:03.237Z,843.91
2017-04-11T00:52:07.541Z,843.91
2017-04-11T00:52:11.972Z,843.88
2017-04-11T00:52:16.281Z,843.9
2017-04-11T00:52:20.589Z,843.89
2017-04-11T00:52:24.893Z,843.91
2017-04-11T00:52:29.324Z,843.89
2017-04-11T00:52:33.746Z,843.86
2017-04-11T00:52:38.055Z,843.87
2017-04-11T00:52:42.477Z,843.88
2017-04-11T00:52:46.787Z,843.9
2017-04-11T00:52:51.212Z,843.88
2017-04-11T00:52:55.640Z,843.86
2017-04-11T00:53:00.063Z,843.83
2017-04-11T00:53:04.504Z,843.86
2017-04-11T00:53:08.948Z,843.85
2017-04-11T00:53:13.379Z,843.82
2017-04-11T00:53:17.809Z,843.83
2017-04-11T00:53:22.241Z,843.83
2017-04-11T00:53:26.554Z,843.84
2017-04-11T00:53:30.982Z,843.83
2017-04-11T00:53:35.291Z,843.82
2017-04-11T00:53:39.602Z,843.8
2017-04-11T00:53:44.030Z,843.81
2017-04-11T00:53:48.456Z,843.76
2017-04-11T00:53:52.883Z,843.76
2017-04-11T00:53:57.324Z,843.74
2017-04-11T00:54:01.636Z,843.75
2017-04-11T00:54:05.944Z,843.74
2017-04-11T00:54:10.256Z,843.74
2017-04-11T00:54:14.685Z,843.75
2017-04-11T00:54:19.113Z,843.76
2017-04-11T00:54:23.546Z,843.72
2017-04-11T00:54:27.976Z,843.76
2017-04-11T00:54:32.175Z,843.75
2017-04-11T00:54:36.478Z,843.71
2017-04-11T00:54:40.914Z,843.74
2017-04-11T00:54:45.338Z,843.7
2017-04-11T00:54:49.672Z,843.72
2017-04-11T00:54:54.103Z,843.7